Time;durP1;ratioP1;P1;durP2;ratioP2;P2;SDS_P1;SDS_P2;PMS_P1;PMS_P2;Temp;Humidity;BMP_temperature;BMP_pressure;BME280_temperature;BME280_humidity;BME280_pressure;Samples;Min_cycle;Max_cycle;Signal;HPM_P1;HPM_P2
2022/12/25 00:01:18;;;;;;;75.13;31.27;;;;;;;5.30;100.00;100661.13;3457111;84;84904;-85
2022/12/25 00:06:20;;;;;;;73.70;31.40;;;;;;;5.35;100.00;100658.78;3461745;84;25905;-85
2022/12/25 00:11:21;;;;;;;81.77;31.87;;;;;;;5.42;100.00;100660.38;3454912;84;98881;-86
2022/12/25 00:16:24;;;;;;;63.10;28.20;;;;;;;5.48;100.00;100661.20;3460597;84;33233;-86
2022/12/25 00:21:25;;;;;;;66.25;29.37;;;;;;;5.52;100.00;100663.47;3456077;84;98867;-86
2022/12/25 00:26:27;;;;;;;59.20;23.93;;;;;;;5.58;100.00;100659.42;3460873;85;33262;-86
2022/12/25 00:31:27;;;;;;;60.95;24.65;;;;;;;5.64;100.00;100661.34;3455921;83;99126;-86
2022/12/25 00:36:28;;;;;;;59.37;24.20;;;;;;;5.68;100.00;100666.38;3461706;84;33328;-86
2022/12/25 00:46:48;;;;;;;51.90;21.13;;;;;;;5.77;100.00;100667.86;3457401;84;25914;-86
2022/12/25 00:51:50;;;;;;;46.87;19.47;;;;;;;5.83;100.00;100668.48;3455630;84;99043;-86
2022/12/25 00:56:51;;;;;;;39.33;17.50;;;;;;;5.86;100.00;100671.33;3461994;84;33236;-86
2022/12/25 01:01:52;;;;;;;47.83;19.20;;;;;;;5.87;100.00;100678.94;3454637;82;99168;-86
2022/12/25 01:06:53;;;;;;;45.13;19.20;;;;;;;5.91;100.00;100684.77;3461986;84;33209;-85
2022/12/25 01:11:53;;;;;;;39.80;18.20;;;;;;;5.94;100.00;100688.76;3454481;84;99032;-86
2022/12/25 01:16:54;;;;;;;46.33;17.93;;;;;;;5.97;100.00;100689.42;3462053;84;33181;-86
2022/12/25 01:21:55;;;;;;;43.30;17.47;;;;;;;5.99;100.00;100696.14;3455033;83;99002;-86
2022/12/25 01:26:56;;;;;;;48.00;17.47;;;;;;;6.02;100.00;100704.23;3461964;84;32986;-85
2022/12/25 01:31:56;;;;;;;39.47;17.07;;;;;;;6.04;100.00;100704.67;3456777;82;99024;-86
2022/12/25 01:36:57;;;;;;;42.47;17.37;;;;;;;6.07;100.00;100706.75;3462610;84;32095;-86
2022/12/25 01:41:58;;;;;;;43.10;17.30;;;;;;;6.08;100.00;100712.44;3455880;82;99045;-86
2022/12/25 01:46:59;;;;;;;50.17;18.07;;;;;;;6.11;100.00;100712.55;3462086;84;31671;-85
2022/12/25 01:52:10;;;;;;;37.95;18.00;;;;;;;6.13;100.00;100712.21;3461746;84;99010;-85
2022/12/25 01:57:16;;;;;;;43.20;18.92;;;;;;;6.15;100.00;100719.48;3496935;83;32183;-85
2022/12/25 02:02:17;;;;;;;52.87;18.60;;;;;;;6.18;100.00;100730.56;3491356;82;99083;-85
2022/12/25 02:07:23;;;;;;;38.50;16.37;;;;;;;6.20;100.00;100741.13;3497589;83;32298;-85
2022/12/25 02:12:28;;;;;;;41.58;17.62;;;;;;;6.21;100.00;100732.59;3491971;82;99148;-84
2022/12/25 02:17:40;;;;;;;37.35;18.10;;;;;;;6.24;100.00;100725.66;3498311;83;30451;-84
2022/12/25 02:23:21;;;;;;;43.10;17.65;;;;;;;6.26;100.00;100733.74;3490337;82;99187;-85
2022/12/25 02:28:36;;;;;;;39.08;18.05;;;;;;;6.28;100.00;100737.52;3496868;83;30898;-85
2022/12/25 02:34:04;;;;;;;49.98;17.80;;;;;;;6.27;100.00;100741.39;3490191;83;99223;-85
2022/12/25 03:11:31;;;;;;;34.60;15.38;;;;;;;6.33;100.00;100753.10;3489463;83;98914;-85
2022/12/25 03:16:51;;;;;;;35.20;16.20;;;;;;;6.38;100.00;100748.00;3499589;83;33310;-86
2022/12/25 03:27:14;;;;;;;42.67;14.67;;;;;;;6.43;100.00;100757.34;3495340;83;30455;-85
2022/12/25 03:32:57;;;;;;;31.20;13.93;;;;;;;6.45;100.00;100759.16;3492196;83;99014;-85
2022/12/25 04:37:17;;;;;;;45.90;18.73;;;;;;;6.44;100.00;100796.63;3497282;83;33269;-85
2022/12/25 04:42:18;;;;;;;40.67;18.23;;;;;;;6.45;100.00;100796.87;3491227;82;98960;-86
2022/12/25 04:47:19;;;;;;;48.57;19.60;;;;;;;6.49;100.00;100803.23;3497631;83;31630;-86
2022/12/25 04:52:20;;;;;;;47.00;19.60;;;;;;;6.50;100.00;100797.99;3491704;82;99360;-86
2022/12/25 04:57:21;;;;;;;46.47;19.67;;;;;;;6.49;100.00;100811.44;3513811;83;31645;-85
2022/12/25 05:02:22;;;;;;;48.73;20.43;;;;;;;6.51;100.00;100822.05;3508217;82;99380;-86
2022/12/25 05:07:22;;;;;;;47.83;18.30;;;;;;;6.53;100.00;100815.09;3511141;82;31870;-86
2022/12/25 05:12:23;;;;;;;57.08;20.88;;;;;;;6.57;100.00;100815.21;3508394;82;99268;-85
2022/12/25 05:17:24;;;;;;;58.67;20.70;;;;;;;6.57;100.00;100820.13;3513958;83;35152;-86
2022/12/25 05:22:25;;;;;;;41.90;18.03;;;;;;;6.57;100.00;100818.76;3508234;82;98890;-86
2022/12/25 05:27:26;;;;;;;59.33;20.70;;;;;;;6.59;100.00;100827.41;3514235;83;34773;-86
2022/12/25 05:32:27;;;;;;;53.67;20.53;;;;;;;6.62;100.00;100819.09;3507859;82;99135;-85
2022/12/25 05:37:28;;;;;;;55.00;21.80;;;;;;;6.63;100.00;100832.98;3514286;84;35601;-86
2022/12/25 05:42:29;;;;;;;60.87;23.70;;;;;;;6.64;100.00;100848.25;3507828;83;99135;-86
2022/12/25 05:47:29;;;;;;;45.67;20.00;;;;;;;6.65;100.00;100864.33;3513864;83;35566;-86
2022/12/25 05:52:33;;;;;;;46.93;18.43;;;;;;;6.65;100.00;100869.80;3507891;83;99188;-86
2022/12/25 05:57:34;;;;;;;39.70;16.13;;;;;;;6.67;100.00;100893.52;3498279;83;26321;-86
2022/12/25 06:02:35;;;;;;;36.48;15.60;;;;;;;6.68;100.00;100891.57;3489861;83;99163;-86
2022/12/25 06:07:36;;;;;;;35.00;15.63;;;;;;;6.68;100.00;100895.12;3491355;83;35332;-86
2022/12/25 06:12:37;;;;;;;33.63;15.80;;;;;;;6.68;100.00;100899.77;3491637;83;99122;-86
2022/12/25 06:17:38;;;;;;;28.80;13.47;;;;;;;6.71;100.00;100910.05;3495676;83;34781;-86
2022/12/25 06:22:39;;;;;;;31.13;14.23;;;;;;;6.75;100.00;100919.16;3486752;82;98980;-86
2022/12/25 06:27:39;;;;;;;33.93;13.97;;;;;;;6.75;100.00;100919.16;3496621;83;35311;-86
2022/12/25 06:32:40;;;;;;;28.07;12.82;;;;;;;6.76;100.00;100918.04;3488701;82;99089;-86
2022/12/25 06:37:41;;;;;;;26.60;12.20;;;;;;;6.78;100.00;100934.91;3496817;83;26467;-86
2022/12/25 06:42:42;;;;;;;28.80;13.03;;;;;;;6.76;100.00;100936.60;3490169;83;99139;-86
2022/12/25 06:47:43;;;;;;;26.00;11.03;;;;;;;6.78;100.00;100945.29;3496970;83;32521;-86
2022/12/25 06:52:43;;;;;;;31.33;11.57;;;;;;;6.80;100.00;100949.03;3488624;82;98976;-87
2022/12/25 06:57:44;;;;;;;27.33;12.57;;;;;;;6.80;100.00;100948.47;3495582;83;33102;-86
2022/12/25 07:02:48;;;;;;;24.97;12.03;;;;;;;6.83;100.00;100953.84;3489716;82;99094;-86
2022/12/25 07:07:48;;;;;;;24.00;12.00;;;;;;;6.84;100.00;100949.40;3493459;83;25879;-86
2022/12/25 07:12:49;;;;;;;31.83;12.87;;;;;;;6.85;100.00;100951.55;3490000;83;98943;-86
2022/12/25 07:17:50;;;;;;;29.70;11.87;;;;;;;6.87;100.00;100957.50;3496819;83;32458;-87
2022/12/25 07:22:51;;;;;;;30.93;12.53;;;;;;;6.86;100.00;100953.95;3489175;82;99135;-87
2022/12/25 07:27:51;;;;;;;25.87;12.13;;;;;;;6.85;100.00;100955.66;3496715;83;32516;-86
2022/12/25 07:32:52;;;;;;;26.22;13.08;;;;;;;6.82;100.00;100946.77;3490686;82;98972;-88
2022/12/25 07:37:53;;;;;;;36.57;15.10;;;;;;;6.82;100.00;100951.66;3495031;83;27462;-87
2022/12/25 07:42:54;;;;;;;27.50;12.47;;;;;;;6.83;100.00;100947.78;3488621;83;99008;-87
2022/12/25 07:47:55;;;;;;;27.30;12.53;;;;;;;6.81;100.00;100947.92;3496706;83;26170;-88
2022/12/25 07:52:57;;;;;;;28.60;13.60;;;;;;;6.81;100.00;100946.55;3487915;82;98994;-88
2022/12/25 07:57:57;;;;;;;24.27;11.77;;;;;;;6.81;100.00;100945.96;3464147;84;26378;-88
2022/12/25 08:02:58;;;;;;;30.10;13.07;;;;;;;6.82;100.00;100962.59;3454051;84;99034;-87
2022/12/25 08:07:59;;;;;;;29.07;11.03;;;;;;;6.84;100.00;100974.58;3458489;84;26223;-88
2022/12/25 08:13:00;;;;;;;28.40;13.00;;;;;;;6.87;100.00;100974.70;3453644;82;99340;-88
2022/12/25 08:18:01;;;;;;;33.07;14.50;;;;;;;6.90;100.00;100980.06;3459375;84;26631;-87
2022/12/25 08:23:03;;;;;;;26.93;11.97;;;;;;;6.93;100.00;100987.02;3453616;84;98690;-87
2022/12/25 08:28:04;;;;;;;22.77;10.63;;;;;;;6.92;100.00;100987.38;3429391;84;26446;-87
2022/12/25 08:33:05;;;;;;;26.93;13.83;;;;;;;6.88;100.00;100989.97;3451889;83;98877;-89
2022/12/25 08:38:06;;;;;;;30.97;13.47;;;;;;;6.85;100.00;100998.88;3459681;84;25948;-86
2022/12/25 08:43:07;;;;;;;27.50;13.03;;;;;;;6.86;100.00;100998.28;3451473;82;98849;-87
2022/12/25 08:48:07;;;;;;;27.17;12.70;;;;;;;6.83;100.00;101013.44;3461199;84;33918;-88
2022/12/25 08:53:08;;;;;;;21.60;11.30;;;;;;;6.83;100.00;101014.02;3453551;84;98988;-87
2022/12/25 08:58:10;;;;;;;27.03;13.90;;;;;;;6.79;100.00;101013.91;3508310;82;33305;-87
2022/12/25 09:03:10;;;;;;;29.27;12.70;;;;;;;6.79;100.00;101015.27;3511852;82;99026;-87
2022/12/25 09:08:11;;;;;;;26.00;13.80;;;;;;;6.73;100.00;101012.52;3518528;82;33643;-87
2022/12/25 09:13:13;;;;;;;27.93;14.40;;;;;;;6.71;100.00;101018.88;3514930;82;99102;-87
2022/12/25 09:18:13;;;;;;;31.80;17.03;;;;;;;6.70;100.00;101021.97;3518022;82;33199;-87
2022/12/25 09:23:14;;;;;;;34.08;16.70;;;;;;;6.71;100.00;101031.77;3514320;82;98944;-87
2022/12/25 09:28:15;;;;;;;32.00;15.46;;;;;;;6.70;100.00;101033.69;3519125;82;33214;-86
2022/12/25 09:33:16;;;;;;;32.43;18.03;;;;;;;6.71;100.00;101038.02;3398567;85;99103;-87
2022/12/25 09:38:17;;;;;;;28.73;16.23;;;;;;;6.71;100.00;101038.02;3404429;86;33380;-87
2022/12/25 09:43:20;;;;;;;37.80;17.73;;;;;;;6.71;100.00;101036.66;3398605;85;99139;-87
2022/12/25 09:48:21;;;;;;;32.63;16.97;;;;;;;6.76;100.00;101029.61;3404394;85;29473;-87
2022/12/25 09:53:31;;;;;;;33.40;16.97;;;;;;;6.78;100.00;101032.83;3398704;85;99068;-87
2022/12/25 09:58:33;;;;;;;41.68;17.32;;;;;;;6.80;100.00;101031.91;3448455;85;30948;-87
2022/12/25 10:04:17;;;;;;;29.17;12.73;;;;;;;6.81;100.00;101041.71;3440165;84;99122;-86
2022/12/25 10:09:40;;;;;;;38.90;16.17;;;;;;;6.77;100.00;101035.89;3519367;84;30415;-87
2022/12/25 10:15:04;;;;;;;36.95;16.37;;;;;;;6.79;100.00;101022.67;3516092;82;98789;-86
2022/12/25 10:20:42;;;;;;;36.45;16.82;;;;;;;6.72;100.00;101006.80;3522183;82;32015;-86
2022/12/25 10:25:44;;;;;;;44.67;19.50;;;;;;;6.77;100.00;101007.95;3515330;83;98883;-86
2022/12/25 10:30:45;;;;;;;41.42;19.85;;;;;;;6.81;100.00;101014.36;3524518;82;31827;-87
2022/12/25 10:35:46;;;;;;;36.17;16.90;;;;;;;6.87;100.00;100999.91;3513963;82;98845;-86
2022/12/25 10:41:14;;;;;;;29.90;13.90;;;;;;;6.84;100.00;101008.22;3520510;82;32708;-86
2022/12/25 10:46:16;;;;;;;31.23;13.65;;;;;;;6.85;100.00;101011.19;3519017;82;33910;-87
2022/12/25 10:51:38;;;;;;;29.90;14.15;;;;;;;6.88;100.00;100989.97;3512329;82;99002;-88
2022/12/25 10:56:38;;;;;;;30.57;11.93;;;;;;;6.91;100.00;100986.57;3512330;83;28459;-87
2022/12/25 11:01:39;;;;;;;30.17;13.70;;;;;;;6.94;100.00;100989.20;3502471;83;98694;-88
2022/12/25 11:06:41;;;;;;;29.00;13.27;;;;;;;6.94;100.00;100987.83;3508416;82;31566;-87
2022/12/25 11:11:45;;;;;;;28.20;12.57;;;;;;;6.91;100.00;100995.34;3505172;82;98884;-87
2022/12/25 11:16:46;;;;;;;26.05;11.40;;;;;;;6.92;100.00;100996.95;3509127;82;33307;-87
2022/12/25 11:21:54;;;;;;;29.43;13.90;;;;;;;6.91;100.00;100998.07;3502314;83;98931;-88
2022/12/25 11:26:58;;;;;;;38.40;15.83;;;;;;;6.97;100.00;100990.69;3510803;84;32775;-87
2022/12/25 11:32:02;;;;;;;35.40;16.48;;;;;;;6.99;100.00;101006.77;3501461;83;99098;-87
2022/12/25 11:37:07;;;;;;;36.55;14.80;;;;;;;6.98;100.00;101010.65;3500451;83;33196;-88
2022/12/25 11:42:25;;;;;;;42.53;16.97;;;;;;;6.92;100.00;101011.42;3500552;83;99224;-88
2022/12/25 11:47:49;;;;;;;34.35;16.20;;;;;;;6.91;100.00;101014.48;3509026;83;31385;-88
2022/12/25 11:52:52;;;;;;;35.83;17.30;;;;;;;6.90;100.00;101003.31;3498225;82;99043;-88
2022/12/25 11:57:57;;;;;;;40.33;19.73;;;;;;;6.87;100.00;100991.11;3498806;83;33517;-87
2022/12/25 12:03:05;;;;;;;38.15;18.85;;;;;;;6.87;100.00;100984.27;3487790;82;99378;-87
2022/12/25 12:08:09;;;;;;;48.08;18.85;;;;;;;6.92;100.00;100988.16;3495174;83;33095;-86
2022/12/25 12:13:25;;;;;;;43.08;19.12;;;;;;;6.94;100.00;100986.46;3489111;82;99100;-86
2022/12/25 12:18:31;;;;;;;42.85;20.32;;;;;;;7.00;100.00;100982.36;3496883;83;25880;-87
2022/12/25 12:24:11;;;;;;;42.57;20.53;;;;;;;7.01;100.00;100973.83;3488022;82;99135;-87
2022/12/25 12:29:35;;;;;;;47.40;21.30;;;;;;;7.05;100.00;100973.94;3494788;83;30431;-87
2022/12/25 12:34:42;;;;;;;45.23;20.55;;;;;;;7.12;100.00;100972.80;3480277;82;98825;-87
2022/12/25 12:39:44;;;;;;;51.45;21.52;;;;;;;7.13;100.00;100971.09;3495546;83;26684;-88
2022/12/25 12:44:47;;;;;;;53.58;23.35;;;;;;;7.12;100.00;100972.24;3471497;83;98804;-89
2022/12/25 12:49:58;;;;;;;47.77;23.27;;;;;;;7.15;100.00;100974.28;3496512;84;29487;-87
2022/12/25 12:55:13;;;;;;;45.60;20.82;;;;;;;7.10;100.00;100962.19;3486643;82;98800;-87
2022/12/25 13:00:20;;;;;;;47.45;21.77;;;;;;;7.07;100.00;100949.20;3469176;83;33967;-87
2022/12/25 13:05:48;;;;;;;48.45;21.80;;;;;;;7.07;100.00;100944.28;3446575;83;98755;-86
2022/12/25 13:11:11;;;;;;;55.90;22.87;;;;;;;7.04;100.00;100938.14;3470347;84;33728;-87
2022/12/25 13:16:24;;;;;;;50.75;22.85;;;;;;;7.03;100.00;100936.55;3471088;83;31946;-86
2022/12/25 13:21:27;;;;;;;44.88;20.80;;;;;;;7.03;100.00;100942.02;3465554;84;99025;-86
2022/12/25 13:26:29;;;;;;;51.77;21.50;;;;;;;7.02;100.00;100936.29;3469885;84;33356;-86
2022/12/25 13:31:30;;;;;;;57.55;24.20;;;;;;;6.99;100.00;100928.78;3465571;83;99014;-87
2022/12/25 13:36:39;;;;;;;50.17;19.70;;;;;;;6.95;100.00;100931.41;3471397;84;32117;-87
2022/12/25 13:47:32;;;;;;;51.35;22.05;;;;;;;6.88;100.00;100943.45;3471206;84;34174;-89
2022/12/25 13:52:37;;;;;;;50.67;19.57;;;;;;;6.84;100.00;100931.62;3464556;84;99053;-87
2022/12/25 13:57:55;;;;;;;57.50;21.65;;;;;;;6.82;100.00;100916.09;3459587;84;31340;-87
2022/12/25 14:02:56;;;;;;;49.93;18.92;;;;;;;6.79;100.00;100910.50;3487492;82;98952;-88
2022/12/25 14:08:01;;;;;;;52.53;20.47;;;;;;;6.78;100.00;100914.39;3496557;83;32557;-86
2022/12/25 14:13:08;;;;;;;47.57;18.23;;;;;;;6.77;100.00;100909.47;3491423;82;99133;-89
2022/12/25 14:18:18;;;;;;;45.33;17.63;;;;;;;6.72;100.00;100905.59;3477995;83;30463;-88
2022/12/25 14:23:19;;;;;;;49.55;19.82;;;;;;;6.72;100.00;100913.02;3489355;82;98980;-88
2022/12/25 14:28:31;;;;;;;51.33;21.80;;;;;;;6.75;100.00;100921.89;3477916;83;32250;-86
2022/12/25 14:33:37;;;;;;;54.85;23.05;;;;;;;6.71;100.00;100921.77;3489235;82;99035;-87
2022/12/25 14:38:40;;;;;;;56.70;23.17;;;;;;;6.67;100.00;100915.96;3496164;83;30546;-88
2022/12/25 14:43:53;;;;;;;58.23;22.13;;;;;;;6.62;100.00;100932.03;3488416;82;98998;-88
2022/12/25 14:49:06;;;;;;;52.17;21.43;;;;;;;6.55;100.00;100931.76;3496754;83;30400;-87
2022/12/25 14:54:14;;;;;;;62.47;24.43;;;;;;;6.51;100.00;100928.69;3489949;82;99009;-89
2022/12/25 14:59:19;;;;;;;61.73;22.42;;;;;;;6.43;100.00;100924.11;3473853;84;32694;-87
2022/12/25 15:04:22;;;;;;;54.35;20.70;;;;;;;6.38;100.00;100905.97;3452435;84;99017;-87
2022/12/25 15:09:24;;;;;;;46.15;20.80;;;;;;;6.30;100.00;100897.30;3458267;84;32468;-87
2022/12/25 15:14:26;;;;;;;48.68;21.30;;;;;;;6.25;100.00;100892.05;3454759;84;98935;-87
2022/12/25 15:19:34;;;;;;;44.67;20.40;;;;;;;6.21;100.00;100903.41;3460992;84;32078;-87
2022/12/25 15:24:35;;;;;;;46.73;18.55;;;;;;;6.21;100.00;100887.59;3453874;84;99016;-87
2022/12/25 15:29:36;;;;;;;54.67;22.37;;;;;;;6.15;100.00;100882.89;3459496;84;31619;-87
2022/12/25 15:34:36;;;;;;;53.07;23.23;;;;;;;6.09;100.00;100905.29;3455277;83;98807;-87
2022/12/25 15:39:37;;;;;;;59.27;23.80;;;;;;;6.09;100.00;100908.83;3461098;84;31639;-86
2022/12/25 15:44:39;;;;;;;50.90;22.13;;;;;;;6.10;100.00;100893.22;3454728;84;98745;-87
2022/12/25 15:49:41;;;;;;;45.73;18.93;;;;;;;6.04;100.00;100893.20;3460782;84;31709;-87
2022/12/25 15:54:42;;;;;;;47.40;21.57;;;;;;;6.00;100.00;100916.88;3453626;82;99161;-88
2022/12/25 15:59:43;;;;;;;53.83;23.63;;;;;;;5.99;100.00;100911.97;3460011;84;32103;-87
2022/12/25 16:04:44;;;;;;;46.50;21.13;;;;;;;5.99;100.00;100877.01;3452620;84;98729;-87
2022/12/25 16:09:45;;;;;;;43.77;19.90;;;;;;;5.92;100.00;100891.23;3458455;84;31591;-87
2022/12/25 16:14:46;;;;;;;53.13;23.02;;;;;;;5.90;100.00;100881.19;3453894;84;98961;-87
2022/12/25 16:19:47;;;;;;;48.57;21.47;;;;;;;5.83;100.00;100889.13;3459561;84;31549;-87
2022/12/25 16:24:48;;;;;;;55.73;22.33;;;;;;;5.79;100.00;100881.91;3453018;82;98802;-86
2022/12/25 16:29:49;;;;;;;45.92;20.08;;;;;;;5.77;100.00;100893.16;3460462;84;30796;-86
2022/12/25 16:34:50;;;;;;;44.47;21.97;;;;;;;5.78;100.00;100888.52;3454864;84;98549;-87
2022/12/25 16:39:51;;;;;;;51.70;24.80;;;;;;;5.78;100.00;100888.52;3458105;84;34834;-87
2022/12/25 16:44:52;;;;;;;57.87;24.00;;;;;;;5.74;100.00;100873.34;3452550;82;98540;-87
2022/12/25 16:49:53;;;;;;;59.67;26.40;;;;;;;5.74;100.00;100866.52;3460158;84;34834;-86
2022/12/25 16:54:53;;;;;;;68.00;31.43;;;;;;;5.75;100.00;100853.67;3453683;84;98748;-87
2022/12/25 16:59:54;;;;;;;71.23;30.67;;;;;;;5.77;100.00;100844.56;3478426;83;34841;-87
2022/12/25 17:04:55;;;;;;;68.92;31.85;;;;;;;5.76;100.00;100851.16;3489275;83;98745;-87
2022/12/25 17:09:57;;;;;;;80.80;32.77;;;;;;;5.76;100.00;100840.23;3495813;83;25875;-86
2022/12/25 17:14:57;;;;;;;84.25;34.55;;;;;;;5.77;100.00;100832.27;3492712;83;98820;-88
2022/12/25 17:19:58;;;;;;;75.73;31.97;;;;;;;5.78;100.00;100820.23;3497058;83;25811;-87
2022/12/25 17:24:59;;;;;;;73.03;30.90;;;;;;;5.78;100.00;100813.41;3490404;82;98444;-86
2022/12/25 17:30:00;;;;;;;80.73;33.83;;;;;;;5.81;100.00;100806.73;3497287;83;32411;-86
2022/12/25 17:35:01;;;;;;;72.53;30.13;;;;;;;5.85;100.00;100793.20;3490530;83;98819;-87
2022/12/25 17:40:02;;;;;;;64.27;27.30;;;;;;;5.87;100.00;100792.29;3495488;83;33716;-87
2022/12/25 17:45:04;;;;;;;71.77;30.23;;;;;;;5.89;100.00;100792.19;3489580;83;98868;-87
2022/12/25 17:50:06;;;;;;;71.47;31.03;;;;;;;5.91;100.00;100796.77;3496281;83;32991;-86
2022/12/25 17:55:08;;;;;;;73.97;32.37;;;;;;;5.93;100.00;100778.09;3488344;82;98790;-86
2022/12/25 18:00:09;;;;;;;71.13;31.60;;;;;;;5.94;100.00;100781.05;3495605;83;32511;-87
2022/12/25 18:05:10;;;;;;;69.27;30.10;;;;;;;5.96;100.00;100783.45;3489760;82;98793;-87
2022/12/25 18:10:13;;;;;;;68.93;30.77;;;;;;;5.96;100.00;100767.88;3496005;83;32443;-86
2022/12/25 18:15:14;;;;;;;75.67;31.87;;;;;;;5.98;100.00;100747.83;3490710;83;98519;-87
2022/12/25 18:20:15;;;;;;;74.37;31.33;;;;;;;5.99;100.00;100765.00;3495461;84;32513;-86
2022/12/25 18:25:16;;;;;;;72.80;30.67;;;;;;;5.98;100.00;100767.51;3488741;82;98524;-87
2022/12/25 18:30:17;;;;;;;74.73;32.83;;;;;;;6.03;100.00;100739.97;3497209;83;32464;-87
2022/12/25 18:35:18;;;;;;;79.97;33.17;;;;;;;6.03;100.00;100733.14;3489646;83;98781;-87
2022/12/25 18:40:19;;;;;;;79.17;35.47;;;;;;;6.02;100.00;100732.92;3495016;83;32438;-89
2022/12/25 18:45:20;;;;;;;82.67;35.83;;;;;;;6.03;100.00;100712.09;3467243;84;99014;-89
2022/12/25 18:50:21;;;;;;;75.93;35.00;;;;;;;6.02;100.00;100713.23;3493433;83;33303;-89
2022/12/25 18:55:22;;;;;;;76.27;33.13;;;;;;;6.01;100.00;100689.77;3489260;83;98856;-90
2022/12/25 19:00:23;;;;;;;79.32;34.23;;;;;;;6.03;100.00;100686.70;3477161;83;32949;-90
2022/12/25 19:05:24;;;;;;;73.22;33.05;;;;;;;6.04;100.00;100674.07;3453420;84;98858;-90
2022/12/25 19:10:25;;;;;;;73.33;32.77;;;;;;;6.03;100.00;100657.45;3456369;84;26449;-90
2022/12/25 19:15:26;;;;;;;71.43;32.20;;;;;;;6.01;100.00;100667.13;3453845;84;98833;-90
2022/12/25 19:20:27;;;;;;;65.33;31.87;;;;;;;6.00;100.00;100646.41;3459871;84;26736;-90
2022/12/25 19:25:28;;;;;;;70.10;31.70;;;;;;;5.99;100.00;100642.06;3453189;84;98965;-91
2022/12/25 19:30:29;;;;;;;75.23;33.53;;;;;;;5.98;100.00;100618.06;3461398;84;27499;-90
2022/12/25 19:35:29;;;;;;;75.60;32.83;;;;;;;5.99;100.00;100622.94;3453870;84;98962;-89
2022/12/25 19:40:30;;;;;;;72.83;32.23;;;;;;;5.98;100.00;100603.59;3459664;84;25906;-90
2022/12/25 19:45:32;;;;;;;61.95;30.05;;;;;;;5.96;100.00;100576.65;3451037;82;99039;-90
2022/12/25 19:50:33;;;;;;;67.93;31.17;;;;;;;5.97;100.00;100565.13;3457392;84;26354;-90
2022/12/25 19:55:34;;;;;;;70.10;31.13;;;;;;;5.98;100.00;100574.36;3450223;84;98962;-90
2022/12/25 20:00:35;;;;;;;72.43;31.13;;;;;;;6.00;100.00;100581.62;3459064;84;33205;-91
2022/12/25 20:05:36;;;;;;;67.47;31.53;;;;;;;6.01;100.00;100581.85;3449178;84;98848;-91
2022/12/25 20:10:43;;;;;;;64.40;29.67;;;;;;;6.03;100.00;100576.05;3455195;84;33234;-90
2022/12/25 20:15:44;;;;;;;67.92;30.43;;;;;;;6.04;100.00;100563.98;3452439;84;98977;-91
2022/12/25 20:20:45;;;;;;;65.30;31.63;;;;;;;6.05;100.00;100566.37;3459450;84;33243;-91
2022/12/25 20:25:47;;;;;;;69.40;30.10;;;;;;;6.06;100.00;100554.30;3452839;83;98847;-89
2022/12/25 20:30:48;;;;;;;71.47;31.97;;;;;;;6.08;100.00;100528.01;3433459;84;33236;-91
2022/12/25 20:35:50;;;;;;;71.70;30.10;;;;;;;6.07;100.00;100517.67;3450440;84;98743;-91
2022/12/25 20:41:04;;;;;;;66.53;32.17;;;;;;;6.08;100.00;100532.11;3459322;84;25830;-92
2022/12/25 20:46:06;;;;;;;60.30;29.30;;;;;;;6.08;100.00;100534.28;3456066;84;26424;-92
2022/12/25 20:51:22;;;;;;;61.57;29.67;;;;;;;6.10;100.00;100540.19;3450557;83;98986;-91
2022/12/25 20:56:30;;;;;;;63.07;31.20;;;;;;;6.12;100.00;100533.02;3459048;84;26222;-90
2022/12/25 21:01:30;;;;;;;61.17;30.77;;;;;;;6.13;100.00;100528.58;3471935;83;98966;-90
2022/12/25 21:06:31;;;;;;;62.37;30.20;;;;;;;6.11;100.00;100515.81;3490747;83;25907;-90
2022/12/25 21:11:32;;;;;;;58.03;28.63;;;;;;;6.12;100.00;100514.67;3489073;82;99202;-90
2022/12/25 21:16:34;;;;;;;62.00;31.43;;;;;;;6.14;100.00;100513.77;3494186;83;33705;-91
2022/12/25 21:21:35;;;;;;;76.50;30.73;;;;;;;6.12;100.00;100510.57;3489331;82;98984;-91
2022/12/25 21:26:36;;;;;;;61.90;30.57;;;;;;;6.11;100.00;100506.25;3494601;83;33213;-90
2022/12/25 21:36:56;;;;;;;62.70;32.33;;;;;;;6.11;100.00;100497.28;3493152;83;33421;-89
2022/12/25 21:41:56;;;;;;;61.93;31.50;;;;;;;6.09;100.00;100488.61;3488689;82;99066;-86
2022/12/25 21:46:57;;;;;;;62.90;31.23;;;;;;;6.07;100.00;100483.52;3494002;83;33306;-89
2022/12/25 21:52:07;;;;;;;65.40;31.43;;;;;;;6.08;100.00;100481.56;3469789;83;99080;-86
2022/12/25 21:57:08;;;;;;;59.63;29.93;;;;;;;6.09;100.00;100477.69;3470924;84;26501;-87
2022/12/25 22:02:09;;;;;;;59.27;32.10;;;;;;;6.05;100.00;100457.09;3469585;82;99040;-89
2022/12/25 22:07:18;;;;;;;58.53;30.23;;;;;;;6.03;100.00;100437.53;3499986;83;33192;-87
2022/12/25 22:23:01;;;;;;;58.27;29.50;;;;;;;6.04;100.00;100413.72;3489609;82;98927;-86
2022/12/25 22:28:02;;;;;;;59.07;29.30;;;;;;;6.04;100.00;100396.77;3501131;83;33748;-87
2022/12/25 22:33:02;;;;;;;54.30;27.20;;;;;;;6.04;100.00;100393.23;3471655;82;98976;-87
2022/12/25 22:38:03;;;;;;;52.13;27.87;;;;;;;6.06;100.00;100384.91;3502639;83;33173;-86
2022/12/25 22:43:04;;;;;;;51.73;27.90;;;;;;;6.06;100.00;100379.45;3495353;82;99097;-88
2022/12/25 22:48:05;;;;;;;50.87;26.43;;;;;;;6.05;100.00;100340.98;3500404;83;33253;-88
2022/12/25 22:53:06;;;;;;;51.47;29.37;;;;;;;6.07;100.00;100349.65;3493156;82;98940;-88
2022/12/25 22:58:07;;;;;;;55.54;29.86;;;;;;;6.08;100.00;100338.94;3501508;83;33192;-89
2022/12/25 23:03:08;;;;;;;48.80;24.73;;;;;;;6.10;100.00;100342.10;3462975;83;99002;-87
2022/12/25 23:08:09;;;;;;;52.10;26.33;;;;;;;6.11;100.00;100320.47;3456918;84;31653;-89
2022/12/25 23:34:27;;;;;;;46.17;21.43;;;;;;;6.16;100.00;100287.42;3454789;82;98844;-87
2022/12/25 23:39:28;;;;;;;42.80;21.43;;;;;;;6.18;100.00;100259.75;3459852;84;31653;-89
2022/12/25 23:44:29;;;;;;;44.83;22.13;;;;;;;6.18;100.00;100259.75;3434209;84;98852;-87
2022/12/25 23:49:30;;;;;;;46.53;20.40;;;;;;;6.21;100.00;100264.53;3455974;84;31627;-88
2022/12/25 23:54:32;;;;;;;43.53;20.17;;;;;;;6.25;100.00;100245.70;3454702;84;98531;-88
2022/12/25 23:59:32;;;;;;;37.37;19.47;;;;;;;6.27;100.00;100246.13;3457951;84;31691;-87
